createdAt,value
2023-04-08T00:02:21.400Z,96649.97
2023-04-08T00:04:52.338Z,96676.22
2023-04-08T00:07:23.354Z,96695.72
2023-04-08T00:09:54.992Z,96698.31
2023-04-08T00:12:22.837Z,96702.09
2023-04-08T00:14:56.397Z,96707.06
2023-04-08T00:17:24.353Z,96709.13
2023-04-08T00:19:52.896Z,96714.41
2023-04-08T00:22:21.292Z,96665.03
2023-04-08T00:24:50.429Z,96707.53
2023-04-08T00:27:20.353Z,96701.75
2023-04-08T00:29:48.177Z,96705.44
2023-04-08T00:32:17.590Z,96698.09
2023-04-08T00:34:46.670Z,96712.94
2023-04-08T00:37:15.587Z,96698.84
2023-04-08T00:39:43.872Z,96675.41
2023-04-08T00:42:23.100Z,96696.19
2023-04-08T00:44:53.938Z,96583.13
2023-04-08T00:47:23.848Z,96707.69
2023-04-08T00:49:56.425Z,96716.31
2023-04-08T00:52:29.145Z,96712.13
2023-04-08T00:54:57.384Z,96711.94
2023-04-08T00:57:25.407Z,96713.59
2023-04-08T00:59:53.331Z,96717.91
2023-04-08T01:02:33.651Z,96720.06
2023-04-08T01:05:12.226Z,96650.97
2023-04-08T01:07:48.096Z,96718.44
2023-04-08T01:10:22.205Z,96713.28
2023-04-08T01:12:55.683Z,96710.91
2023-04-08T01:15:26.540Z,96577.75
2023-04-08T01:17:57.720Z,96706.06
2023-04-08T01:20:27.048Z,96700.50
2023-04-08T01:23:10.319Z,96692.63
2023-04-08T01:25:39.250Z,96687.56
2023-04-08T01:28:12.400Z,96708.47
2023-04-08T01:30:43.321Z,96711.97
2023-04-08T01:33:16.910Z,96707.81
2023-04-08T01:35:51.682Z,96703.47
2023-04-08T01:38:25.394Z,96714.25
2023-04-08T01:40:56.360Z,96712.66
2023-04-08T01:43:26.274Z,96688.59
2023-04-08T01:45:58.373Z,96701.34
2023-04-08T01:48:26.935Z,96699.06
2023-04-08T01:50:56.236Z,96704.47
2023-04-08T01:53:29.047Z,96677.50
2023-04-08T01:55:59.798Z,96706.16
2023-04-08T01:58:34.603Z,96704.19
2023-04-08T02:01:03.033Z,96704.66
2023-04-08T02:03:34.598Z,96706.88
2023-04-08T02:06:03.701Z,96703.50
2023-04-08T02:08:33.336Z,96713.13
2023-04-08T02:11:01.654Z,96707.38
2023-04-08T02:13:34.663Z,96611.00
2023-04-08T02:16:21.586Z,96709.78
2023-04-08T02:18:57.965Z,96695.19
2023-04-08T02:21:33.320Z,96674.09
2023-04-08T02:24:04.606Z,96669.88
2023-04-08T02:26:37.086Z,96692.75
2023-04-08T02:29:06.857Z,96688.38
2023-04-08T02:31:56.157Z,96684.25
2023-04-08T02:34:28.549Z,96691.94
2023-04-08T02:37:02.403Z,96682.59
2023-04-08T02:39:45.297Z,96673.50
2023-04-08T02:42:13.453Z,96693.44
2023-04-08T02:44:48.864Z,96709.09
2023-04-08T02:47:16.895Z,96694.47
2023-04-08T02:49:44.694Z,96499.22
2023-04-08T02:52:12.724Z,96698.00
2023-04-08T02:54:42.219Z,96706.91
2023-04-08T02:57:10.181Z,96704.03
2023-04-08T02:59:39.148Z,96702.63
2023-04-08T03:02:10.226Z,96648.28
2023-04-08T03:04:42.452Z,96703.97
2023-04-08T03:07:13.656Z,96694.13
2023-04-08T03:09:46.414Z,96693.56
2023-04-08T03:12:14.432Z,96707.81
2023-04-08T03:14:42.568Z,96424.66
2023-04-08T03:17:16.682Z,96702.75
2023-04-08T03:19:44.875Z,96687.66
2023-04-08T03:22:13.470Z,96709.16
2023-04-08T03:24:43.271Z,96647.78
2023-04-08T03:27:12.486Z,96695.06
2023-04-08T03:29:40.979Z,96709.47
2023-04-08T03:32:13.471Z,96707.63
2023-04-08T03:34:41.568Z,96674.38
2023-04-08T03:37:10.571Z,96650.84
2023-04-08T03:39:39.183Z,96704.22
2023-04-08T03:42:09.976Z,96688.97
2023-04-08T03:44:39.903Z,96401.41
2023-04-08T03:47:07.979Z,96399.09
2023-04-08T03:49:39.728Z,96706.53
2023-04-08T03:52:10.406Z,96707.50
2023-04-08T03:54:40.773Z,96705.09
2023-04-08T03:57:14.477Z,96709.09
2023-04-08T03:59:47.589Z,96702.31
2023-04-08T04:02:19.521Z,96709.94
2023-04-08T04:04:52.433Z,96699.16
2023-04-08T04:07:24.420Z,96709.53
2023-04-08T04:09:54.193Z,96708.19
2023-04-08T04:12:21.962Z,96710.19
2023-04-08T04:14:52.236Z,96718.00
2023-04-08T04:17:22.171Z,96712.00
2023-04-08T04:19:51.383Z,96716.69
2023-04-08T04:22:19.821Z,96669.34
2023-04-08T04:24:49.044Z,96719.31
2023-04-08T04:27:20.310Z,96715.34
2023-04-08T04:29:48.184Z,96673.69
2023-04-08T04:32:16.301Z,96736.06
2023-04-08T04:34:46.848Z,96690.94
2023-04-08T04:37:18.925Z,96720.44
2023-04-08T04:39:51.015Z,96715.38
2023-04-08T04:42:18.963Z,96715.91
2023-04-08T04:44:47.751Z,96719.94
2023-04-08T04:47:16.696Z,96731.19
2023-04-08T04:49:47.624Z,96724.22
2023-04-08T04:52:17.121Z,96723.81
2023-04-08T04:54:48.036Z,96735.50
2023-04-08T04:57:19.013Z,96737.97
2023-04-08T04:59:47.206Z,96734.94
2023-04-08T05:02:18.134Z,96733.31
2023-04-08T05:04:46.151Z,96735.84
2023-04-08T05:07:18.106Z,96734.84
2023-04-08T05:09:46.767Z,96737.72
2023-04-08T05:12:14.599Z,96714.72
2023-04-08T05:14:46.314Z,96742.38
2023-04-08T05:17:14.374Z,96746.34
2023-04-08T05:19:43.875Z,96742.13
2023-04-08T05:22:11.679Z,96743.25
2023-04-08T05:24:40.803Z,96745.03
2023-04-08T05:27:16.796Z,96750.44
2023-04-08T05:29:47.799Z,96751.16
2023-04-08T05:32:18.460Z,96756.78
2023-04-08T05:34:49.340Z,96744.03
2023-04-08T05:37:17.082Z,96748.63
2023-04-08T05:39:46.279Z,96751.47
2023-04-08T05:42:19.872Z,96750.28
2023-04-08T05:44:49.101Z,96755.69
2023-04-08T05:47:16.899Z,96759.00
2023-04-08T05:49:44.981Z,96763.47
2023-04-08T05:52:13.585Z,96767.13
2023-04-08T05:54:48.734Z,96454.28
2023-04-08T05:57:18.360Z,96758.16
2023-04-08T05:59:49.251Z,96768.25
2023-04-08T06:02:17.288Z,96779.22
2023-04-08T06:04:47.282Z,96779.88
2023-04-08T06:07:19.559Z,96768.41
2023-04-08T06:09:48.795Z,96782.31
2023-04-08T06:12:16.636Z,96785.56
2023-04-08T06:14:44.510Z,96780.66
2023-04-08T06:17:12.445Z,96791.88
2023-04-08T06:19:40.473Z,96784.59
2023-04-08T06:22:08.591Z,96793.13
2023-04-08T06:24:37.776Z,96795.50
2023-04-08T06:27:07.911Z,96794.47
2023-04-08T06:29:39.697Z,96768.31
2023-04-08T06:32:09.102Z,96796.81
2023-04-08T06:34:40.399Z,96798.47
2023-04-08T06:37:12.829Z,96806.97
2023-04-08T06:39:51.101Z,96769.28
2023-04-08T06:42:23.239Z,96797.31
2023-04-08T06:44:54.312Z,96810.63
2023-04-08T06:47:41.011Z,96795.78
2023-04-08T06:50:09.681Z,96808.50
2023-04-08T06:52:37.793Z,96809.78
2023-04-08T06:55:07.431Z,96807.13
2023-04-08T06:57:39.856Z,96813.31
2023-04-08T07:00:09.379Z,96795.13
2023-04-08T07:02:38.668Z,96814.00
2023-04-08T07:05:08.016Z,96807.91
2023-04-08T07:07:38.833Z,96744.88
2023-04-08T07:10:10.904Z,96813.19
2023-04-08T07:12:44.156Z,96814.59
2023-04-08T07:15:18.675Z,96628.66
2023-04-08T07:17:46.875Z,96799.72
2023-04-08T07:20:18.994Z,96751.78
2023-04-08T07:22:47.446Z,96806.31
2023-04-08T07:25:15.465Z,96825.59
2023-04-08T07:27:45.264Z,96821.41
2023-04-08T07:30:15.553Z,96774.69
2023-04-08T07:32:48.368Z,96820.47
2023-04-08T07:35:24.463Z,96809.59
2023-04-08T07:37:57.816Z,96809.47
2023-04-08T07:40:26.073Z,96832.81
2023-04-08T07:42:57.615Z,96831.31
2023-04-08T07:45:29.922Z,96804.53
2023-04-08T07:47:57.838Z,96834.84
2023-04-08T07:50:30.501Z,96839.22
2023-04-08T07:53:00.086Z,96834.78
2023-04-08T07:55:35.136Z,96837.31
2023-04-08T07:58:06.520Z,96822.53
2023-04-08T08:00:35.960Z,96656.13
2023-04-08T08:03:06.471Z,96842.59
2023-04-08T08:05:39.877Z,96833.06
2023-04-08T08:08:08.568Z,96829.94
2023-04-08T08:10:38.524Z,96824.16
2023-04-08T08:13:08.431Z,96842.91
2023-04-08T08:15:36.325Z,96850.72
2023-04-08T08:18:04.617Z,96827.66
2023-04-08T08:20:36.748Z,96860.88
2023-04-08T08:23:06.347Z,96856.72
2023-04-08T08:25:34.338Z,96852.59
2023-04-08T08:28:02.051Z,96861.72
2023-04-08T08:33:05.369Z,96850.09
2023-04-08T08:35:35.106Z,96858.44
2023-04-08T08:38:03.170Z,96861.00
2023-04-08T08:40:34.326Z,96863.41
2023-04-08T08:43:05.823Z,96816.09
2023-04-08T08:45:35.800Z,96839.22
2023-04-08T08:48:04.178Z,96876.38
2023-04-08T08:50:33.821Z,96866.41
2023-04-08T08:53:01.977Z,96860.31
2023-04-08T08:55:59.999Z,96867.81
2023-04-08T08:58:28.157Z,96864.75
2023-04-08T09:01:03.870Z,96822.44
2023-04-08T09:03:39.596Z,96862.03
2023-04-08T09:06:07.962Z,96873.72
2023-04-08T09:08:39.359Z,96868.56
2023-04-08T09:11:16.799Z,96842.03
2023-04-08T09:13:45.085Z,96851.78
2023-04-08T09:16:18.208Z,96860.06
2023-04-08T09:18:47.499Z,96782.84
2023-04-08T09:21:18.151Z,96865.75
2023-04-08T09:23:51.909Z,96863.56
2023-04-08T09:26:24.327Z,96858.19
2023-04-08T09:29:14.345Z,96853.53
2023-04-08T09:31:53.512Z,96864.19
2023-04-08T09:34:25.886Z,96847.88
2023-04-08T09:37:06.219Z,96857.56
2023-04-08T09:39:34.181Z,96850.81
2023-04-08T09:42:11.659Z,96861.06
2023-04-08T09:44:42.734Z,96854.28
2023-04-08T09:47:20.803Z,96804.97
2023-04-08T09:49:52.846Z,96858.41
2023-04-08T09:52:23.403Z,96821.84
2023-04-08T09:54:55.078Z,96830.03
2023-04-08T09:57:30.390Z,96863.03
2023-04-08T10:00:03.027Z,96854.22
2023-04-08T10:02:46.232Z,96863.16
2023-04-08T10:05:17.074Z,96859.16
2023-04-08T10:07:47.390Z,96780.06
2023-04-08T10:10:16.009Z,96849.31
2023-04-08T10:12:44.011Z,96624.97
2023-04-08T10:15:28.060Z,96851.97
2023-04-08T10:18:44.417Z,96854.88
2023-04-08T10:21:35.048Z,96858.78
2023-04-08T10:24:07.767Z,96836.97
2023-04-08T10:26:50.098Z,96854.00
2023-04-08T10:29:36.645Z,96847.97
2023-04-08T10:32:04.669Z,96849.03
2023-04-08T10:34:33.991Z,96857.47
2023-04-08T10:37:02.733Z,96858.69
2023-04-08T10:39:31.916Z,96766.53
2023-04-08T10:42:02.903Z,96846.91
2023-04-08T10:44:33.640Z,96854.09
2023-04-08T10:47:01.900Z,96856.06
2023-04-08T10:49:37.961Z,96831.16
2023-04-08T10:52:24.759Z,96861.97
2023-04-08T10:54:55.391Z,96852.47
2023-04-08T10:57:30.477Z,96851.91
2023-04-08T11:00:01.242Z,96862.66
2023-04-08T11:02:34.364Z,96852.19
2023-04-08T11:05:08.451Z,96846.00
2023-04-08T11:07:42.924Z,96849.41
2023-04-08T11:10:14.492Z,96845.53
2023-04-08T11:12:44.467Z,96847.28
2023-04-08T11:15:15.167Z,96764.72
2023-04-08T11:17:47.653Z,96896.13
2023-04-08T11:20:17.578Z,96847.47
2023-04-08T11:22:48.074Z,96859.72
2023-04-08T11:25:16.015Z,96852.44
2023-04-08T11:27:45.703Z,96808.72
2023-04-08T11:30:16.754Z,96843.06
2023-04-08T11:32:47.287Z,96845.84
2023-04-08T11:35:18.259Z,96847.94
2023-04-08T11:38:10.109Z,96769.31
2023-04-08T11:40:38.444Z,96845.50
2023-04-08T11:43:10.939Z,96826.03
2023-04-08T11:45:46.053Z,96804.56
2023-04-08T11:48:15.598Z,96839.06
2023-04-08T11:50:47.593Z,96840.31
2023-04-08T11:53:27.034Z,96810.22
2023-04-08T11:56:05.437Z,96833.03
2023-04-08T11:58:37.580Z,96790.91
2023-04-08T12:01:07.602Z,96796.16
2023-04-08T12:03:42.417Z,96839.63
2023-04-08T12:06:17.340Z,96828.31
2023-04-08T12:08:45.371Z,96836.22
2023-04-08T12:11:19.862Z,96840.72
2023-04-08T12:13:49.886Z,96844.13
2023-04-08T12:16:20.316Z,96810.03
2023-04-08T12:18:48.446Z,96843.66
2023-04-08T12:21:18.134Z,96848.19
2023-04-08T12:23:48.821Z,96845.22
2023-04-08T12:26:17.363Z,96799.41
2023-04-08T12:28:47.101Z,96852.38
2023-04-08T12:31:20.432Z,96857.66
2023-04-08T12:33:48.647Z,96857.56
2023-04-08T12:36:18.516Z,96856.47
2023-04-08T12:38:49.370Z,96863.19
2023-04-08T12:41:18.062Z,96828.56
2023-04-08T12:43:46.993Z,96854.50
2023-04-08T12:46:14.930Z,96849.47
2023-04-08T12:48:47.557Z,96784.00
2023-04-08T12:51:30.345Z,96857.66
2023-04-08T12:53:59.318Z,96853.50
2023-04-08T12:56:29.717Z,96840.13
2023-04-08T12:59:01.124Z,96862.78
2023-04-08T13:01:32.625Z,96759.44
2023-04-08T13:04:03.064Z,96852.66
2023-04-08T13:06:38.777Z,96842.63
2023-04-08T13:09:08.024Z,96850.63
2023-04-08T13:11:36.871Z,96846.66
2023-04-08T13:14:04.991Z,96845.94
2023-04-08T13:16:34.936Z,96840.75
2023-04-08T13:19:03.014Z,96844.81
2023-04-08T13:21:34.220Z,96835.56
2023-04-08T13:24:04.609Z,96835.31
2023-04-08T13:26:32.832Z,96848.38
2023-04-08T13:29:10.257Z,96844.88
2023-04-08T13:31:38.977Z,96817.41
2023-04-08T13:34:09.210Z,96817.03
2023-04-08T13:36:41.354Z,96817.88
2023-04-08T13:39:09.403Z,96849.03
2023-04-08T13:41:37.527Z,96823.69
2023-04-08T13:44:05.754Z,96847.13
2023-04-08T13:46:36.370Z,96792.78
2023-04-08T13:49:04.644Z,96852.38
2023-04-08T13:51:35.350Z,96847.25
2023-04-08T13:54:08.287Z,96839.34
2023-04-08T13:56:36.379Z,96847.38
2023-04-08T13:59:07.367Z,96814.41
2023-04-08T14:01:38.343Z,96846.25
2023-04-08T14:04:12.103Z,96842.53
2023-04-08T14:06:40.344Z,96845.53
2023-04-08T14:09:10.708Z,96846.56
2023-04-08T14:11:40.810Z,96846.00
2023-04-08T14:14:11.305Z,96835.91
2023-04-08T14:16:41.910Z,96780.41
2023-04-08T14:19:33.247Z,96845.81
2023-04-08T14:22:02.665Z,96815.56
2023-04-08T14:24:32.977Z,96826.19
2023-04-08T14:27:04.801Z,96790.09
2023-04-08T14:29:34.274Z,96839.91
2023-04-08T14:32:03.615Z,96837.88
2023-04-08T14:34:31.716Z,96852.22
2023-04-08T14:37:01.382Z,96840.53
2023-04-08T14:39:45.058Z,96847.97
2023-04-08T14:42:13.138Z,96854.00
2023-04-08T14:44:41.420Z,96843.19
2023-04-08T14:47:12.526Z,96845.53
2023-04-08T14:49:40.705Z,96843.34
2023-04-08T14:52:08.620Z,96790.03
2023-04-08T14:54:36.454Z,96828.31
2023-04-08T14:57:07.038Z,96825.34
2023-04-08T14:59:35.268Z,96839.97
2023-04-08T15:02:03.493Z,96845.03
2023-04-08T15:04:32.143Z,96853.81
2023-04-08T15:07:01.634Z,96821.16
2023-04-08T15:09:36.165Z,96859.38
2023-04-08T15:12:06.300Z,96860.63
2023-04-08T15:14:34.270Z,96858.59
2023-04-08T15:17:05.244Z,96860.19
2023-04-08T15:19:33.249Z,96861.00
2023-04-08T15:22:01.248Z,96856.44
2023-04-08T15:24:36.686Z,96862.19
2023-04-08T15:27:06.067Z,96865.31
2023-04-08T15:29:34.132Z,96870.34
2023-04-08T15:32:04.955Z,96879.56
2023-04-08T15:34:33.148Z,96795.25
2023-04-08T15:37:02.295Z,96866.19
2023-04-08T15:39:30.800Z,96609.44
2023-04-08T15:42:05.436Z,96876.25
2023-04-08T15:44:37.693Z,96896.94
2023-04-08T15:47:08.540Z,96878.13
2023-04-08T15:49:46.422Z,96807.66
2023-04-08T15:52:15.942Z,96880.97
2023-04-08T15:54:46.519Z,96782.25
2023-04-08T15:57:16.273Z,96880.31
2023-04-08T15:59:47.936Z,96886.72
2023-04-08T16:02:15.854Z,96887.69
2023-04-08T16:04:47.272Z,96886.63
2023-04-08T16:07:19.335Z,96893.28
2023-04-08T16:09:47.128Z,96862.00
2023-04-08T16:12:19.979Z,96896.19
2023-04-08T16:14:49.458Z,96938.34
2023-04-08T16:17:20.252Z,96911.66
2023-04-08T16:19:51.124Z,96883.09
2023-04-08T16:25:19.516Z,96901.06
2023-04-08T16:27:51.223Z,96902.56
2023-04-08T16:30:22.338Z,96914.91
2023-04-08T16:33:00.893Z,96912.00
2023-04-08T16:35:31.378Z,96919.22
2023-04-08T16:37:59.595Z,96911.22
2023-04-08T16:40:27.763Z,96915.28
2023-04-08T16:43:00.817Z,96921.88
2023-04-08T16:45:31.079Z,96931.63
2023-04-08T16:48:04.033Z,96826.47
2023-04-08T16:50:33.988Z,96922.19
2023-04-08T16:53:03.066Z,96935.63
2023-04-08T16:55:33.421Z,96933.09
2023-04-08T16:58:01.297Z,96879.81
2023-04-08T17:00:33.488Z,96952.81
2023-04-08T17:03:04.437Z,96912.94
2023-04-08T17:05:35.301Z,96915.63
2023-04-08T17:08:08.825Z,96948.09
2023-04-08T17:10:48.532Z,96951.91
2023-04-08T17:13:19.466Z,96958.53
2023-04-08T17:15:50.385Z,96964.31
2023-04-08T17:18:21.332Z,96907.78
2023-04-08T17:20:49.633Z,96966.63
2023-04-08T17:23:17.696Z,96970.59
2023-04-08T17:25:46.499Z,96970.31
2023-04-08T17:28:18.462Z,96978.06
2023-04-08T17:30:46.389Z,96970.69
2023-04-08T17:33:19.054Z,96883.34
2023-04-08T17:35:47.235Z,96995.50
2023-04-08T17:38:15.172Z,96990.03
2023-04-08T17:40:44.081Z,96966.44
2023-04-08T17:43:13.221Z,96998.03
2023-04-08T17:45:41.664Z,96993.44
2023-04-08T17:48:12.291Z,96988.09
2023-04-08T17:50:41.706Z,96991.50
2023-04-08T17:53:11.511Z,96982.75
2023-04-08T17:55:41.759Z,96981.69
2023-04-08T17:58:09.621Z,96982.50
2023-04-08T18:00:41.041Z,96983.56
2023-04-08T18:03:09.553Z,96972.69
2023-04-08T18:05:43.051Z,96976.75
2023-04-08T18:08:12.892Z,96966.63
2023-04-08T18:10:43.115Z,96989.06
2023-04-08T18:13:12.133Z,96983.09
2023-04-08T18:15:43.927Z,96973.41
2023-04-08T18:18:11.881Z,96994.91
2023-04-08T18:20:41.872Z,96949.47
2023-04-08T18:23:10.397Z,97012.38
2023-04-08T18:25:41.433Z,97001.78
2023-04-08T18:28:09.488Z,97022.25
2023-04-08T18:30:55.035Z,97023.34
2023-04-08T18:33:24.125Z,97023.50
2023-04-08T18:35:52.814Z,97008.84
2023-04-08T18:38:21.232Z,97022.91
2023-04-08T18:40:54.078Z,96939.44
2023-04-08T18:43:26.692Z,97023.34
2023-04-08T18:45:55.568Z,97015.97
2023-04-08T18:48:24.377Z,97035.75
2023-04-08T18:50:52.482Z,97035.41
2023-04-08T18:53:20.886Z,97036.72
2023-04-08T18:55:51.179Z,97036.72
2023-04-08T18:58:22.821Z,97048.63
2023-04-08T19:00:51.022Z,97004.38
2023-04-08T19:03:21.617Z,97043.88
2023-04-08T19:05:52.000Z,97052.63
2023-04-08T19:08:30.996Z,97059.91
2023-04-08T19:11:00.670Z,97059.56
2023-04-08T19:13:29.635Z,97056.03
2023-04-08T19:16:00.524Z,97018.69
2023-04-08T19:18:33.478Z,97049.75
2023-04-08T19:21:04.826Z,97070.78
2023-04-08T19:23:44.303Z,97071.06
2023-04-08T19:26:17.686Z,97067.06
2023-04-08T19:28:47.652Z,97068.66
2023-04-08T19:31:17.018Z,97066.03
2023-04-08T19:33:47.800Z,97073.06
2023-04-08T19:36:18.892Z,97049.88
2023-04-08T19:38:53.825Z,97030.13
2023-04-08T19:41:23.887Z,97069.66
2023-04-08T19:43:53.390Z,97069.78
2023-04-08T19:46:22.226Z,97044.75
2023-04-08T19:48:53.120Z,97077.28
2023-04-08T19:51:38.120Z,97065.06
2023-04-08T19:54:06.350Z,97075.44
2023-04-08T19:56:38.072Z,97037.38
2023-04-08T19:59:08.148Z,97083.25
2023-04-08T20:01:36.481Z,97072.63
2023-04-08T20:04:05.720Z,97086.75
2023-04-08T20:06:33.610Z,97084.25
2023-04-08T20:09:08.706Z,97077.88
2023-04-08T20:11:38.396Z,97086.47
2023-04-08T20:14:06.543Z,97082.56
2023-04-08T20:16:36.503Z,97091.00
2023-04-08T20:19:04.602Z,97084.47
2023-04-08T20:21:32.702Z,97088.91
2023-04-08T20:24:00.946Z,97081.63
2023-04-08T20:26:29.088Z,97078.75
2023-04-08T20:29:01.350Z,97081.63
2023-04-08T20:31:32.381Z,97069.34
2023-04-08T20:34:00.517Z,97085.28
2023-04-08T20:36:29.638Z,97083.63
2023-04-08T20:39:00.382Z,97092.50
2023-04-08T20:41:33.271Z,97086.69
2023-04-08T20:44:06.307Z,97081.44
2023-04-08T20:46:35.339Z,97085.75
2023-04-08T20:49:03.819Z,97088.34
2023-04-08T20:51:34.925Z,97064.91
2023-04-08T20:54:07.848Z,97092.97
2023-04-08T20:56:35.885Z,97037.94
2023-04-08T20:59:08.468Z,97080.06
2023-04-08T21:01:41.562Z,97088.97
2023-04-08T21:04:10.029Z,97079.28
2023-04-08T21:06:43.997Z,97071.78
2023-04-08T21:09:12.320Z,97074.63
2023-04-08T21:11:50.322Z,97025.66
2023-04-08T21:14:25.770Z,97059.63
2023-04-08T21:16:56.980Z,97065.28
2023-04-08T21:19:27.583Z,97072.16
2023-04-08T21:21:58.423Z,97071.47
2023-04-08T21:24:32.327Z,97081.59
2023-04-08T21:27:03.315Z,97074.81
2023-04-08T21:29:33.679Z,97080.34
2023-04-08T21:32:01.737Z,96966.06
2023-04-08T21:34:34.433Z,97072.63
2023-04-08T21:37:02.452Z,97086.84
2023-04-08T21:39:31.686Z,97078.69
2023-04-08T21:42:02.144Z,97080.31
2023-04-08T21:44:30.529Z,97021.00
2023-04-08T21:47:04.937Z,97083.94
2023-04-08T21:49:34.983Z,97084.06
2023-04-08T21:52:06.109Z,97080.38
2023-04-08T21:54:36.542Z,97081.03
2023-04-08T21:57:08.019Z,97084.91
2023-04-08T22:02:29.996Z,97080.88
2023-04-08T22:04:58.456Z,97085.72
2023-04-08T22:07:26.529Z,97082.28
2023-04-08T22:09:55.568Z,97051.34
2023-04-08T22:12:27.260Z,97085.31
2023-04-08T22:15:00.409Z,97100.78
2023-04-08T22:17:30.607Z,97086.72
2023-04-08T22:20:01.488Z,97085.91
2023-04-08T22:22:29.594Z,97055.91
2023-04-08T22:24:57.702Z,97080.03
2023-04-08T22:27:29.492Z,97055.84
2023-04-08T22:29:57.267Z,97080.06
2023-04-08T22:32:25.586Z,97071.91
2023-04-08T22:34:56.944Z,97073.72
2023-04-08T22:37:27.994Z,97086.56
2023-04-08T22:40:00.211Z,97085.44
2023-04-08T22:42:28.195Z,97083.69
2023-04-08T22:44:56.293Z,97082.84
2023-04-08T22:47:30.022Z,97074.59
2023-04-08T22:50:02.257Z,97005.63
2023-04-08T22:52:34.680Z,97061.19
2023-04-08T22:55:02.720Z,97078.06
2023-04-08T22:57:33.189Z,97066.06
2023-04-08T23:00:03.890Z,97080.91
2023-04-08T23:02:32.443Z,97041.56
2023-04-08T23:05:03.564Z,97074.47
2023-04-08T23:07:35.245Z,97070.41
2023-04-08T23:10:03.556Z,96966.84
2023-04-08T23:12:31.714Z,97054.56
2023-04-08T23:14:59.807Z,97075.03
2023-04-08T23:17:30.253Z,97082.31
2023-04-08T23:20:17.238Z,97065.81
2023-04-08T23:22:45.269Z,97084.50
2023-04-08T23:25:13.253Z,97076.00
2023-04-08T23:27:41.368Z,97071.19
2023-04-08T23:30:10.764Z,97075.97
2023-04-08T23:32:38.653Z,97070.84
2023-04-08T23:35:09.630Z,97074.22
2023-04-08T23:37:38.955Z,97074.94
2023-04-08T23:40:08.465Z,97079.59
2023-04-08T23:42:38.163Z,97079.50
2023-04-08T23:45:10.250Z,97049.19
2023-04-08T23:47:39.568Z,97074.53
2023-04-08T23:50:12.477Z,97077.28
2023-04-08T23:52:46.970Z,97059.97
2023-04-08T23:55:20.219Z,97069.13
2023-04-08T23:57:49.329Z,97067.28
